Lucia, California
Current Conditions -  °F | °C
As of 8:54 PM on Sunday 19 Oct 2014 (Local Time) from KMRY Reporting Station
Clear Clear  
Wind Chill: 16°   Ceiling: Unl
Heat Index: 16°   Visibility: 10mi
Dew Point: 13°   Wind: 3mph
Humidity: 81%   Direction: 120°ESE
Pressure: 29.91"   Gusts: NA
Location:  36.2518°N, 121.704°W
Report Text: KMRY 200354Z 12003KT 10SM CLR 16/13 A2991 RMK AO2 SLP141 T01610128
Loading
Personal Weather Stations






























Interactive Weather Map
Tropical Storm Tracking
New forecast layout! Learn more

10-Day Weather Forecast

Advertisements
Track Severe Weather on mobile